sensor_id;sensor_type;location;lat;lon;timestamp;P1;durP1;ratioP1;P2;durP2;ratioP2
81801;SDS011;71199;52.490;5.448;2023-07-22T00:00:28;8.52;;;5.50;;
81801;SDS011;71199;52.490;5.448;2023-07-22T00:02:54;10.13;;;5.13;;
81801;SDS011;71199;52.490;5.448;2023-07-22T00:05:20;8.33;;;5.10;;
81801;SDS011;71199;52.490;5.448;2023-07-22T00:07:48;12.95;;;5.13;;
81801;SDS011;71199;52.490;5.448;2023-07-22T00:10:16;11.07;;;5.38;;
81801;SDS011;71199;52.490;5.448;2023-07-22T00:12:42;9.40;;;5.20;;
81801;SDS011;71199;52.490;5.448;2023-07-22T00:15:07;11.10;;;5.50;;
81801;SDS011;71199;52.490;5.448;2023-07-22T00:17:33;9.48;;;5.40;;
81801;SDS011;71199;52.490;5.448;2023-07-22T00:19:58;11.15;;;5.43;;
81801;SDS011;71199;52.490;5.448;2023-07-22T00:22:25;10.23;;;4.88;;
81801;SDS011;71199;52.490;5.448;2023-07-22T00:24:51;7.45;;;4.72;;
81801;SDS011;71199;52.490;5.448;2023-07-22T00:27:17;9.75;;;5.50;;
81801;SDS011;71199;52.490;5.448;2023-07-22T00:29:42;11.97;;;4.77;;
81801;SDS011;71199;52.490;5.448;2023-07-22T00:32:08;8.95;;;5.40;;
81801;SDS011;71199;52.490;5.448;2023-07-22T00:34:34;8.50;;;5.10;;
81801;SDS011;71199;52.490;5.448;2023-07-22T00:36:59;9.98;;;5.43;;
81801;SDS011;71199;52.490;5.448;2023-07-22T00:39:25;8.03;;;4.60;;
81801;SDS011;71199;52.490;5.448;2023-07-22T00:41:50;12.33;;;4.83;;
81801;SDS011;71199;52.490;5.448;2023-07-22T00:44:15;10.50;;;5.15;;
81801;SDS011;71199;52.490;5.448;2023-07-22T00:46:41;10.47;;;5.47;;
81801;SDS011;71199;52.490;5.448;2023-07-22T00:49:09;12.23;;;6.23;;
81801;SDS011;71199;52.490;5.448;2023-07-22T00:51:34;11.18;;;5.97;;
81801;SDS011;71199;52.490;5.448;2023-07-22T00:54:00;12.20;;;6.27;;
81801;SDS011;71199;52.490;5.448;2023-07-22T00:56:25;10.82;;;6.20;;
81801;SDS011;71199;52.490;5.448;2023-07-22T00:58:51;10.60;;;5.88;;
81801;SDS011;71199;52.490;5.448;2023-07-22T01:01:17;10.80;;;5.88;;
81801;SDS011;71199;52.490;5.448;2023-07-22T01:03:43;12.60;;;6.80;;
81801;SDS011;71199;52.490;5.448;2023-07-22T01:06:09;10.15;;;5.55;;
81801;SDS011;71199;52.490;5.448;2023-07-22T01:08:35;12.23;;;5.78;;
81801;SDS011;71199;52.490;5.448;2023-07-22T01:11:00;10.55;;;6.03;;
81801;SDS011;71199;52.490;5.448;2023-07-22T01:13:26;12.38;;;6.43;;
81801;SDS011;71199;52.490;5.448;2023-07-22T01:15:51;11.95;;;5.82;;
81801;SDS011;71199;52.490;5.448;2023-07-22T01:18:17;11.43;;;6.22;;
81801;SDS011;71199;52.490;5.448;2023-07-22T01:20:42;11.77;;;6.68;;
81801;SDS011;71199;52.490;5.448;2023-07-22T01:23:09;11.45;;;6.38;;
81801;SDS011;71199;52.490;5.448;2023-07-22T01:25:34;11.98;;;6.18;;
81801;SDS011;71199;52.490;5.448;2023-07-22T01:27:59;11.88;;;6.72;;
81801;SDS011;71199;52.490;5.448;2023-07-22T01:30:25;12.93;;;6.40;;
81801;SDS011;71199;52.490;5.448;2023-07-22T01:35:17;17.43;;;7.43;;
81801;SDS011;71199;52.490;5.448;2023-07-22T01:37:43;13.93;;;6.40;;
81801;SDS011;71199;52.490;5.448;2023-07-22T01:40:08;14.10;;;7.05;;
81801;SDS011;71199;52.490;5.448;2023-07-22T01:42:38;17.73;;;6.80;;
81801;SDS011;71199;52.490;5.448;2023-07-22T01:45:04;15.93;;;7.07;;
81801;SDS011;71199;52.490;5.448;2023-07-22T01:47:37;16.33;;;7.53;;
81801;SDS011;71199;52.490;5.448;2023-07-22T01:50:03;12.25;;;7.30;;
81801;SDS011;71199;52.490;5.448;2023-07-22T01:52:31;14.32;;;6.97;;
81801;SDS011;71199;52.490;5.448;2023-07-22T01:54:56;18.33;;;7.68;;
81801;SDS011;71199;52.490;5.448;2023-07-22T01:57:22;13.35;;;7.40;;
81801;SDS011;71199;52.490;5.448;2023-07-22T01:59:47;15.73;;;7.07;;
81801;SDS011;71199;52.490;5.448;2023-07-22T02:02:13;16.87;;;7.77;;
81801;SDS011;71199;52.490;5.448;2023-07-22T02:04:38;16.70;;;7.70;;
81801;SDS011;71199;52.490;5.448;2023-07-22T02:07:04;17.42;;;8.25;;
81801;SDS011;71199;52.490;5.448;2023-07-22T02:09:31;15.65;;;7.70;;
81801;SDS011;71199;52.490;5.448;2023-07-22T02:11:57;15.75;;;7.43;;
81801;SDS011;71199;52.490;5.448;2023-07-22T02:14:23;16.83;;;7.97;;
81801;SDS011;71199;52.490;5.448;2023-07-22T02:16:48;18.47;;;8.20;;
81801;SDS011;71199;52.490;5.448;2023-07-22T02:19:14;21.40;;;8.07;;
81801;SDS011;71199;52.490;5.448;2023-07-22T02:21:40;17.90;;;7.85;;
81801;SDS011;71199;52.490;5.448;2023-07-22T02:24:06;14.68;;;7.32;;
81801;SDS011;71199;52.490;5.448;2023-07-22T02:26:31;20.15;;;8.75;;
81801;SDS011;71199;52.490;5.448;2023-07-22T02:28:56;18.97;;;8.50;;
81801;SDS011;71199;52.490;5.448;2023-07-22T02:31:22;17.43;;;8.33;;
81801;SDS011;71199;52.490;5.448;2023-07-22T02:33:47;19.15;;;8.02;;
81801;SDS011;71199;52.490;5.448;2023-07-22T02:36:13;16.45;;;8.20;;
81801;SDS011;71199;52.490;5.448;2023-07-22T02:38:39;20.05;;;8.25;;
81801;SDS011;71199;52.490;5.448;2023-07-22T02:41:04;18.70;;;8.02;;
81801;SDS011;71199;52.490;5.448;2023-07-22T02:45:57;16.90;;;8.63;;
81801;SDS011;71199;52.490;5.448;2023-07-22T02:48:22;18.48;;;8.10;;
81801;SDS011;71199;52.490;5.448;2023-07-22T02:50:48;17.85;;;9.07;;
81801;SDS011;71199;52.490;5.448;2023-07-22T02:53:14;16.55;;;8.68;;
81801;SDS011;71199;52.490;5.448;2023-07-22T02:55:39;16.50;;;8.30;;
81801;SDS011;71199;52.490;5.448;2023-07-22T02:58:04;21.33;;;9.30;;
81801;SDS011;71199;52.490;5.448;2023-07-22T03:00:30;19.20;;;8.90;;
81801;SDS011;71199;52.490;5.448;2023-07-22T03:02:57;20.00;;;9.65;;
81801;SDS011;71199;52.490;5.448;2023-07-22T03:05:26;20.90;;;10.55;;
81801;SDS011;71199;52.490;5.448;2023-07-22T03:07:53;22.27;;;10.10;;
81801;SDS011;71199;52.490;5.448;2023-07-22T03:10:18;20.15;;;9.45;;
81801;SDS011;71199;52.490;5.448;2023-07-22T03:12:43;21.90;;;10.07;;
81801;SDS011;71199;52.490;5.448;2023-07-22T03:15:09;36.50;;;10.87;;
81801;SDS011;71199;52.490;5.448;2023-07-22T03:17:35;29.00;;;11.50;;
81801;SDS011;71199;52.490;5.448;2023-07-22T03:20:02;22.55;;;9.85;;
81801;SDS011;71199;52.490;5.448;2023-07-22T03:22:33;22.95;;;10.98;;
81801;SDS011;71199;52.490;5.448;2023-07-22T03:24:59;23.60;;;11.10;;
81801;SDS011;71199;52.490;5.448;2023-07-22T03:27:24;24.75;;;11.63;;
81801;SDS011;71199;52.490;5.448;2023-07-22T03:29:49;23.23;;;10.80;;
81801;SDS011;71199;52.490;5.448;2023-07-22T03:32:15;25.27;;;11.23;;
81801;SDS011;71199;52.490;5.448;2023-07-22T03:34:40;26.70;;;11.63;;
81801;SDS011;71199;52.490;5.448;2023-07-22T03:37:06;25.30;;;11.88;;
81801;SDS011;71199;52.490;5.448;2023-07-22T03:39:31;26.70;;;11.83;;
81801;SDS011;71199;52.490;5.448;2023-07-22T03:41:57;32.00;;;11.65;;
81801;SDS011;71199;52.490;5.448;2023-07-22T03:44:22;27.10;;;11.43;;
81801;SDS011;71199;52.490;5.448;2023-07-22T03:46:48;30.75;;;13.93;;
81801;SDS011;71199;52.490;5.448;2023-07-22T03:49:13;31.25;;;12.63;;
81801;SDS011;71199;52.490;5.448;2023-07-22T03:51:39;34.65;;;13.57;;
81801;SDS011;71199;52.490;5.448;2023-07-22T03:54:04;34.83;;;13.70;;
81801;SDS011;71199;52.490;5.448;2023-07-22T03:56:29;28.83;;;12.67;;
81801;SDS011;71199;52.490;5.448;2023-07-22T03:58:55;31.60;;;14.20;;
81801;SDS011;71199;52.490;5.448;2023-07-22T04:01:20;32.43;;;13.77;;
81801;SDS011;71199;52.490;5.448;2023-07-22T04:03:45;31.40;;;13.27;;
81801;SDS011;71199;52.490;5.448;2023-07-22T04:06:11;36.40;;;15.70;;
81801;SDS011;71199;52.490;5.448;2023-07-22T04:08:36;29.42;;;13.77;;
81801;SDS011;71199;52.490;5.448;2023-07-22T04:11:02;27.92;;;14.55;;
81801;SDS011;71199;52.490;5.448;2023-07-22T04:13:27;31.33;;;14.52;;
81801;SDS011;71199;52.490;5.448;2023-07-22T04:15:53;30.58;;;13.85;;
81801;SDS011;71199;52.490;5.448;2023-07-22T04:18:19;32.47;;;14.10;;
81801;SDS011;71199;52.490;5.448;2023-07-22T04:20:46;28.80;;;14.13;;
81801;SDS011;71199;52.490;5.448;2023-07-22T04:23:15;30.23;;;13.88;;
81801;SDS011;71199;52.490;5.448;2023-07-22T04:25:40;31.37;;;14.97;;
81801;SDS011;71199;52.490;5.448;2023-07-22T04:28:06;31.40;;;15.10;;
81801;SDS011;71199;52.490;5.448;2023-07-22T04:30:32;28.50;;;13.90;;
81801;SDS011;71199;52.490;5.448;2023-07-22T04:32:57;30.60;;;12.57;;
81801;SDS011;71199;52.490;5.448;2023-07-22T04:35:23;28.75;;;13.07;;
81801;SDS011;71199;52.490;5.448;2023-07-22T04:37:48;28.23;;;13.57;;
81801;SDS011;71199;52.490;5.448;2023-07-22T04:40:14;28.63;;;13.30;;
81801;SDS011;71199;52.490;5.448;2023-07-22T04:42:41;27.88;;;12.95;;
81801;SDS011;71199;52.490;5.448;2023-07-22T04:45:07;27.92;;;11.80;;
81801;SDS011;71199;52.490;5.448;2023-07-22T04:47:37;30.35;;;12.45;;
81801;SDS011;71199;52.490;5.448;2023-07-22T04:50:04;27.15;;;12.40;;
81801;SDS011;71199;52.490;5.448;2023-07-22T04:52:33;26.85;;;13.20;;
81801;SDS011;71199;52.490;5.448;2023-07-22T04:54:59;25.60;;;12.57;;
81801;SDS011;71199;52.490;5.448;2023-07-22T04:57:24;22.80;;;11.68;;
81801;SDS011;71199;52.490;5.448;2023-07-22T04:59:49;28.80;;;12.47;;
81801;SDS011;71199;52.490;5.448;2023-07-22T05:02:15;24.00;;;11.43;;
81801;SDS011;71199;52.490;5.448;2023-07-22T05:04:40;22.33;;;12.00;;
81801;SDS011;71199;52.490;5.448;2023-07-22T05:07:05;25.10;;;13.52;;
81801;SDS011;71199;52.490;5.448;2023-07-22T05:09:31;24.93;;;12.90;;
81801;SDS011;71199;52.490;5.448;2023-07-22T05:11:56;25.77;;;12.53;;
81801;SDS011;71199;52.490;5.448;2023-07-22T05:14:21;24.67;;;11.83;;
81801;SDS011;71199;52.490;5.448;2023-07-22T05:16:47;21.37;;;10.07;;
81801;SDS011;71199;52.490;5.448;2023-07-22T05:19:12;23.17;;;10.53;;
81801;SDS011;71199;52.490;5.448;2023-07-22T05:21:38;23.50;;;10.88;;
81801;SDS011;71199;52.490;5.448;2023-07-22T05:24:03;24.37;;;11.40;;
81801;SDS011;71199;52.490;5.448;2023-07-22T05:26:28;21.30;;;11.38;;
81801;SDS011;71199;52.490;5.448;2023-07-22T05:28:54;24.15;;;10.75;;
81801;SDS011;71199;52.490;5.448;2023-07-22T05:31:19;21.57;;;10.50;;
81801;SDS011;71199;52.490;5.448;2023-07-22T05:33:45;22.27;;;11.02;;
81801;SDS011;71199;52.490;5.448;2023-07-22T05:36:10;26.40;;;12.05;;
81801;SDS011;71199;52.490;5.448;2023-07-22T05:38:36;20.88;;;10.82;;
81801;SDS011;71199;52.490;5.448;2023-07-22T05:41:01;19.45;;;10.00;;
81801;SDS011;71199;52.490;5.448;2023-07-22T05:43:26;20.38;;;10.73;;
81801;SDS011;71199;52.490;5.448;2023-07-22T05:45:52;20.80;;;10.60;;
81801;SDS011;71199;52.490;5.448;2023-07-22T05:48:17;20.60;;;9.85;;
81801;SDS011;71199;52.490;5.448;2023-07-22T05:50:42;20.47;;;10.43;;
81801;SDS011;71199;52.490;5.448;2023-07-22T05:53:08;20.40;;;10.27;;
81801;SDS011;71199;52.490;5.448;2023-07-22T05:55:33;21.27;;;10.65;;
81801;SDS011;71199;52.490;5.448;2023-07-22T05:57:59;19.63;;;9.53;;
81801;SDS011;71199;52.490;5.448;2023-07-22T06:00:30;25.15;;;10.85;;
81801;SDS011;71199;52.490;5.448;2023-07-22T06:02:55;17.30;;;9.63;;
81801;SDS011;71199;52.490;5.448;2023-07-22T06:05:21;21.03;;;10.07;;
81801;SDS011;71199;52.490;5.448;2023-07-22T06:07:46;17.20;;;9.33;;
81801;SDS011;71199;52.490;5.448;2023-07-22T06:10:12;18.73;;;8.63;;
81801;SDS011;71199;52.490;5.448;2023-07-22T06:12:37;16.67;;;9.32;;
81801;SDS011;71199;52.490;5.448;2023-07-22T06:15:03;19.67;;;8.73;;
81801;SDS011;71199;52.490;5.448;2023-07-22T06:17:29;17.05;;;8.30;;
81801;SDS011;71199;52.490;5.448;2023-07-22T06:19:54;14.27;;;8.23;;
81801;SDS011;71199;52.490;5.448;2023-07-22T06:22:20;13.57;;;7.60;;
81801;SDS011;71199;52.490;5.448;2023-07-22T06:24:45;15.07;;;7.93;;
81801;SDS011;71199;52.490;5.448;2023-07-22T06:27:10;12.95;;;6.93;;
81801;SDS011;71199;52.490;5.448;2023-07-22T06:29:36;14.30;;;7.90;;
81801;SDS011;71199;52.490;5.448;2023-07-22T06:32:01;15.07;;;7.38;;
81801;SDS011;71199;52.490;5.448;2023-07-22T06:34:27;14.45;;;7.25;;
81801;SDS011;71199;52.490;5.448;2023-07-22T06:36:52;12.30;;;7.22;;
81801;SDS011;71199;52.490;5.448;2023-07-22T06:39:18;11.73;;;6.43;;
81801;SDS011;71199;52.490;5.448;2023-07-22T06:41:43;14.50;;;7.13;;
81801;SDS011;71199;52.490;5.448;2023-07-22T06:44:08;12.07;;;6.32;;
81801;SDS011;71199;52.490;5.448;2023-07-22T06:46:34;13.32;;;7.28;;
81801;SDS011;71199;52.490;5.448;2023-07-22T06:49:00;12.77;;;6.03;;
81801;SDS011;71199;52.490;5.448;2023-07-22T06:51:25;13.75;;;6.70;;
81801;SDS011;71199;52.490;5.448;2023-07-22T06:53:51;10.23;;;5.57;;
81801;SDS011;71199;52.490;5.448;2023-07-22T06:56:16;9.53;;;5.43;;
81801;SDS011;71199;52.490;5.448;2023-07-22T06:58:41;13.10;;;6.43;;
81801;SDS011;71199;52.490;5.448;2023-07-22T07:01:07;11.80;;;5.67;;
81801;SDS011;71199;52.490;5.448;2023-07-22T07:03:32;13.83;;;6.07;;
81801;SDS011;71199;52.490;5.448;2023-07-22T07:05:57;13.23;;;6.90;;
81801;SDS011;71199;52.490;5.448;2023-07-22T07:08:23;14.95;;;6.30;;
81801;SDS011;71199;52.490;5.448;2023-07-22T07:10:49;11.55;;;6.28;;
81801;SDS011;71199;52.490;5.448;2023-07-22T07:13:15;12.07;;;6.70;;
81801;SDS011;71199;52.490;5.448;2023-07-22T07:15:40;13.93;;;7.77;;
81801;SDS011;71199;52.490;5.448;2023-07-22T07:18:05;14.80;;;7.53;;
81801;SDS011;71199;52.490;5.448;2023-07-22T07:20:31;13.27;;;7.28;;
81801;SDS011;71199;52.490;5.448;2023-07-22T07:22:56;13.38;;;8.65;;
81801;SDS011;71199;52.490;5.448;2023-07-22T07:25:22;16.30;;;8.27;;
81801;SDS011;71199;52.490;5.448;2023-07-22T07:27:47;13.57;;;7.45;;
81801;SDS011;71199;52.490;5.448;2023-07-22T07:30:13;17.65;;;8.32;;
81801;SDS011;71199;52.490;5.448;2023-07-22T07:32:38;14.02;;;7.75;;
81801;SDS011;71199;52.490;5.448;2023-07-22T07:35:03;17.10;;;8.30;;
81801;SDS011;71199;52.490;5.448;2023-07-22T07:37:29;15.25;;;7.95;;
81801;SDS011;71199;52.490;5.448;2023-07-22T07:39:56;17.05;;;8.07;;
81801;SDS011;71199;52.490;5.448;2023-07-22T07:42:25;16.10;;;8.35;;
81801;SDS011;71199;52.490;5.448;2023-07-22T07:44:51;15.52;;;7.88;;
81801;SDS011;71199;52.490;5.448;2023-07-22T07:47:16;16.93;;;8.77;;
81801;SDS011;71199;52.490;5.448;2023-07-22T07:49:42;15.32;;;8.88;;
81801;SDS011;71199;52.490;5.448;2023-07-22T07:52:07;16.13;;;8.47;;
81801;SDS011;71199;52.490;5.448;2023-07-22T07:54:33;20.95;;;9.93;;
81801;SDS011;71199;52.490;5.448;2023-07-22T07:56:58;17.23;;;9.07;;
81801;SDS011;71199;52.490;5.448;2023-07-22T07:59:23;22.98;;;10.05;;
81801;SDS011;71199;52.490;5.448;2023-07-22T08:01:49;18.48;;;9.82;;
81801;SDS011;71199;52.490;5.448;2023-07-22T08:04:14;23.83;;;11.77;;
81801;SDS011;71199;52.490;5.448;2023-07-22T08:06:42;18.83;;;11.20;;
81801;SDS011;71199;52.490;5.448;2023-07-22T08:09:07;18.88;;;11.52;;
81801;SDS011;71199;52.490;5.448;2023-07-22T08:11:35;21.20;;;10.77;;
81801;SDS011;71199;52.490;5.448;2023-07-22T08:14:02;21.92;;;11.43;;
81801;SDS011;71199;52.490;5.448;2023-07-22T08:16:28;26.58;;;12.15;;
81801;SDS011;71199;52.490;5.448;2023-07-22T08:18:53;21.85;;;11.55;;
81801;SDS011;71199;52.490;5.448;2023-07-22T08:21:19;27.63;;;12.20;;
81801;SDS011;71199;52.490;5.448;2023-07-22T08:23:45;26.73;;;11.40;;
81801;SDS011;71199;52.490;5.448;2023-07-22T08:26:11;28.88;;;11.82;;
81801;SDS011;71199;52.490;5.448;2023-07-22T08:28:37;25.92;;;13.52;;
81801;SDS011;71199;52.490;5.448;2023-07-22T08:31:03;21.70;;;11.35;;
81801;SDS011;71199;52.490;5.448;2023-07-22T08:33:29;21.30;;;11.10;;
81801;SDS011;71199;52.490;5.448;2023-07-22T08:35:54;20.83;;;11.38;;
81801;SDS011;71199;52.490;5.448;2023-07-22T08:38:20;22.17;;;11.07;;
81801;SDS011;71199;52.490;5.448;2023-07-22T08:40:48;21.77;;;11.77;;
81801;SDS011;71199;52.490;5.448;2023-07-22T08:43:19;26.73;;;11.90;;
81801;SDS011;71199;52.490;5.448;2023-07-22T08:45:45;20.33;;;10.98;;
81801;SDS011;71199;52.490;5.448;2023-07-22T08:48:12;18.33;;;9.68;;
81801;SDS011;71199;52.490;5.448;2023-07-22T08:50:55;24.65;;;12.88;;
81801;SDS011;71199;52.490;5.448;2023-07-22T08:53:27;18.38;;;11.02;;
81801;SDS011;71199;52.490;5.448;2023-07-22T08:55:54;18.52;;;10.30;;
81801;SDS011;71199;52.490;5.448;2023-07-22T08:58:20;19.92;;;9.65;;
81801;SDS011;71199;52.490;5.448;2023-07-22T09:00:46;17.85;;;10.45;;
81801;SDS011;71199;52.490;5.448;2023-07-22T09:03:13;17.42;;;9.20;;
81801;SDS011;71199;52.490;5.448;2023-07-22T09:05:39;18.33;;;9.77;;
81801;SDS011;71199;52.490;5.448;2023-07-22T09:08:06;16.25;;;9.13;;
81801;SDS011;71199;52.490;5.448;2023-07-22T09:10:32;16.15;;;8.68;;
81801;SDS011;71199;52.490;5.448;2023-07-22T09:13:01;12.05;;;7.68;;
81801;SDS011;71199;52.490;5.448;2023-07-22T09:15:27;14.70;;;8.35;;
81801;SDS011;71199;52.490;5.448;2023-07-22T09:17:53;14.43;;;8.85;;
81801;SDS011;71199;52.490;5.448;2023-07-22T09:20:19;16.08;;;8.82;;
81801;SDS011;71199;52.490;5.448;2023-07-22T09:22:45;11.93;;;8.30;;
81801;SDS011;71199;52.490;5.448;2023-07-22T09:25:17;12.23;;;8.52;;
81801;SDS011;71199;52.490;5.448;2023-07-22T09:27:45;14.25;;;8.52;;
81801;SDS011;71199;52.490;5.448;2023-07-22T09:32:45;13.77;;;8.15;;
81801;SDS011;71199;52.490;5.448;2023-07-22T09:35:11;15.88;;;8.32;;
81801;SDS011;71199;52.490;5.448;2023-07-22T09:37:37;12.73;;;8.10;;
81801;SDS011;71199;52.490;5.448;2023-07-22T09:40:24;13.45;;;8.32;;
81801;SDS011;71199;52.490;5.448;2023-07-22T09:42:54;12.73;;;9.77;;
81801;SDS011;71199;52.490;5.448;2023-07-22T09:45:22;15.82;;;9.93;;
81801;SDS011;71199;52.490;5.448;2023-07-22T09:47:49;20.35;;;13.95;;
81801;SDS011;71199;52.490;5.448;2023-07-22T09:50:16;21.65;;;13.80;;
81801;SDS011;71199;52.490;5.448;2023-07-22T09:52:46;16.70;;;10.57;;
81801;SDS011;71199;52.490;5.448;2023-07-22T09:55:13;16.48;;;10.65;;
81801;SDS011;71199;52.490;5.448;2023-07-22T09:57:43;16.67;;;11.35;;
81801;SDS011;71199;52.490;5.448;2023-07-22T10:00:11;15.35;;;10.63;;
81801;SDS011;71199;52.490;5.448;2023-07-22T10:02:39;16.85;;;11.40;;
81801;SDS011;71199;52.490;5.448;2023-07-22T10:05:06;14.23;;;10.65;;
81801;SDS011;71199;52.490;5.448;2023-07-22T10:07:37;18.50;;;12.57;;
81801;SDS011;71199;52.490;5.448;2023-07-22T10:12:29;18.45;;;11.40;;
81801;SDS011;71199;52.490;5.448;2023-07-22T10:14:55;18.95;;;11.35;;
81801;SDS011;71199;52.490;5.448;2023-07-22T10:17:21;17.92;;;12.60;;
81801;SDS011;71199;52.490;5.448;2023-07-22T10:19:47;18.55;;;11.15;;
81801;SDS011;71199;52.490;5.448;2023-07-22T10:22:14;19.25;;;11.52;;
81801;SDS011;71199;52.490;5.448;2023-07-22T10:24:39;18.40;;;9.38;;
81801;SDS011;71199;52.490;5.448;2023-07-22T10:27:06;13.68;;;8.40;;
81801;SDS011;71199;52.490;5.448;2023-07-22T10:29:32;14.93;;;8.70;;
81801;SDS011;71199;52.490;5.448;2023-07-22T10:31:59;12.40;;;7.30;;
81801;SDS011;71199;52.490;5.448;2023-07-22T10:34:24;10.40;;;6.45;;
81801;SDS011;71199;52.490;5.448;2023-07-22T10:36:50;11.50;;;6.38;;
81801;SDS011;71199;52.490;5.448;2023-07-22T10:39:25;7.57;;;4.70;;
81801;SDS011;71199;52.490;5.448;2023-07-22T10:42:03;8.50;;;5.20;;
81801;SDS011;71199;52.490;5.448;2023-07-22T10:44:36;8.88;;;4.53;;
81801;SDS011;71199;52.490;5.448;2023-07-22T10:47:02;5.43;;;3.60;;
81801;SDS011;71199;52.490;5.448;2023-07-22T10:49:45;10.15;;;4.28;;
81801;SDS011;71199;52.490;5.448;2023-07-22T10:52:12;5.60;;;3.40;;
81801;SDS011;71199;52.490;5.448;2023-07-22T10:54:39;6.15;;;3.30;;
81801;SDS011;71199;52.490;5.448;2023-07-22T10:59:40;8.43;;;3.28;;
81801;SDS011;71199;52.490;5.448;2023-07-22T11:02:27;7.88;;;3.28;;
81801;SDS011;71199;52.490;5.448;2023-07-22T11:04:57;6.50;;;3.13;;
81801;SDS011;71199;52.490;5.448;2023-07-22T11:07:33;4.88;;;3.50;;
81801;SDS011;71199;52.490;5.448;2023-07-22T11:10:13;5.68;;;3.05;;
81801;SDS011;71199;52.490;5.448;2023-07-22T11:15:07;8.32;;;3.55;;
81801;SDS011;71199;52.490;5.448;2023-07-22T11:17:33;7.43;;;3.45;;
81801;SDS011;71199;52.490;5.448;2023-07-22T11:19:59;8.48;;;4.40;;
81801;SDS011;71199;52.490;5.448;2023-07-22T11:22:25;7.63;;;4.63;;
81801;SDS011;71199;52.490;5.448;2023-07-22T11:24:54;9.38;;;4.40;;
81801;SDS011;71199;52.490;5.448;2023-07-22T11:27:19;10.18;;;4.30;;
81801;SDS011;71199;52.490;5.448;2023-07-22T11:29:45;8.88;;;4.47;;
81801;SDS011;71199;52.490;5.448;2023-07-22T11:32:14;8.75;;;4.65;;
81801;SDS011;71199;52.490;5.448;2023-07-22T11:37:10;10.00;;;4.20;;
81801;SDS011;71199;52.490;5.448;2023-07-22T11:39:35;8.00;;;4.47;;
81801;SDS011;71199;52.490;5.448;2023-07-22T11:42:02;8.18;;;4.53;;
81801;SDS011;71199;52.490;5.448;2023-07-22T11:44:29;6.70;;;3.90;;
81801;SDS011;71199;52.490;5.448;2023-07-22T11:52:07;9.95;;;3.63;;
81801;SDS011;71199;52.490;5.448;2023-07-22T11:54:38;8.50;;;3.25;;
81801;SDS011;71199;52.490;5.448;2023-07-22T11:59:47;6.63;;;2.97;;
81801;SDS011;71199;52.490;5.448;2023-07-22T12:02:14;4.03;;;2.63;;
81801;SDS011;71199;52.490;5.448;2023-07-22T12:07:23;4.68;;;2.90;;
81801;SDS011;71199;52.490;5.448;2023-07-22T12:09:49;7.50;;;2.78;;
81801;SDS011;71199;52.490;5.448;2023-07-22T12:12:16;6.50;;;2.60;;
81801;SDS011;71199;52.490;5.448;2023-07-22T12:14:42;4.90;;;2.60;;
81801;SDS011;71199;52.490;5.448;2023-07-22T12:17:10;7.10;;;3.35;;
81801;SDS011;71199;52.490;5.448;2023-07-22T12:19:35;7.40;;;3.58;;
81801;SDS011;71199;52.490;5.448;2023-07-22T12:22:01;8.65;;;2.38;;
81801;SDS011;71199;52.490;5.448;2023-07-22T12:24:27;5.40;;;2.42;;
81801;SDS011;71199;52.490;5.448;2023-07-22T12:26:53;5.95;;;2.88;;
81801;SDS011;71199;52.490;5.448;2023-07-22T12:29:18;5.68;;;2.88;;
81801;SDS011;71199;52.490;5.448;2023-07-22T12:31:44;6.47;;;2.90;;
81801;SDS011;71199;52.490;5.448;2023-07-22T12:34:10;6.07;;;2.55;;
81801;SDS011;71199;52.490;5.448;2023-07-22T12:36:35;5.97;;;2.23;;
81801;SDS011;71199;52.490;5.448;2023-07-22T12:39:00;6.53;;;2.95;;
81801;SDS011;71199;52.490;5.448;2023-07-22T12:41:26;8.27;;;2.70;;
81801;SDS011;71199;52.490;5.448;2023-07-22T12:43:51;4.75;;;2.40;;
81801;SDS011;71199;52.490;5.448;2023-07-22T12:46:17;6.85;;;2.28;;
81801;SDS011;71199;52.490;5.448;2023-07-22T12:48:42;6.57;;;2.30;;
81801;SDS011;71199;52.490;5.448;2023-07-22T12:51:08;4.28;;;2.25;;
81801;SDS011;71199;52.490;5.448;2023-07-22T12:53:34;5.13;;;2.13;;
81801;SDS011;71199;52.490;5.448;2023-07-22T12:55:59;4.97;;;1.93;;
81801;SDS011;71199;52.490;5.448;2023-07-22T12:58:27;5.07;;;2.28;;
81801;SDS011;71199;52.490;5.448;2023-07-22T13:00:53;3.33;;;1.95;;
81801;SDS011;71199;52.490;5.448;2023-07-22T13:03:18;6.33;;;2.43;;
81801;SDS011;71199;52.490;5.448;2023-07-22T13:05:43;4.50;;;2.00;;
81801;SDS011;71199;52.490;5.448;2023-07-22T13:08:09;5.60;;;2.00;;
81801;SDS011;71199;52.490;5.448;2023-07-22T13:10:34;4.90;;;1.60;;
81801;SDS011;71199;52.490;5.448;2023-07-22T13:13:02;3.95;;;1.80;;
81801;SDS011;71199;52.490;5.448;2023-07-22T13:15:28;6.32;;;2.10;;
81801;SDS011;71199;52.490;5.448;2023-07-22T13:17:53;3.33;;;1.67;;
81801;SDS011;71199;52.490;5.448;2023-07-22T13:20:18;3.23;;;1.97;;
81801;SDS011;71199;52.490;5.448;2023-07-22T13:22:44;7.07;;;2.00;;
81801;SDS011;71199;52.490;5.448;2023-07-22T13:25:09;2.90;;;1.55;;
81801;SDS011;71199;52.490;5.448;2023-07-22T13:27:35;6.53;;;2.10;;
81801;SDS011;71199;52.490;5.448;2023-07-22T13:30:01;4.18;;;1.70;;
81801;SDS011;71199;52.490;5.448;2023-07-22T13:32:26;4.30;;;1.70;;
81801;SDS011;71199;52.490;5.448;2023-07-22T13:34:52;4.03;;;1.90;;
81801;SDS011;71199;52.490;5.448;2023-07-22T13:37:17;3.60;;;1.77;;
81801;SDS011;71199;52.490;5.448;2023-07-22T13:39:43;2.93;;;1.83;;
81801;SDS011;71199;52.490;5.448;2023-07-22T13:42:08;2.97;;;1.73;;
81801;SDS011;71199;52.490;5.448;2023-07-22T13:44:34;2.77;;;1.67;;
81801;SDS011;71199;52.490;5.448;2023-07-22T13:46:59;4.07;;;2.10;;
81801;SDS011;71199;52.490;5.448;2023-07-22T13:49:25;4.53;;;2.00;;
81801;SDS011;71199;52.490;5.448;2023-07-22T13:51:50;3.57;;;1.87;;
81801;SDS011;71199;52.490;5.448;2023-07-22T13:54:15;7.03;;;1.90;;
81801;SDS011;71199;52.490;5.448;2023-07-22T13:56:41;3.67;;;1.87;;
81801;SDS011;71199;52.490;5.448;2023-07-22T13:59:08;5.60;;;1.90;;
81801;SDS011;71199;52.490;5.448;2023-07-22T14:01:33;5.00;;;1.95;;
81801;SDS011;71199;52.490;5.448;2023-07-22T14:03:59;4.05;;;2.20;;
81801;SDS011;71199;52.490;5.448;2023-07-22T14:06:24;3.78;;;1.70;;
81801;SDS011;71199;52.490;5.448;2023-07-22T14:08:50;4.00;;;2.03;;
81801;SDS011;71199;52.490;5.448;2023-07-22T14:11:15;3.45;;;1.80;;
81801;SDS011;71199;52.490;5.448;2023-07-22T14:13:40;5.63;;;2.22;;
81801;SDS011;71199;52.490;5.448;2023-07-22T14:16:06;3.50;;;1.90;;
81801;SDS011;71199;52.490;5.448;2023-07-22T14:18:31;3.85;;;1.80;;
81801;SDS011;71199;52.490;5.448;2023-07-22T14:20:58;5.00;;;2.15;;
81801;SDS011;71199;52.490;5.448;2023-07-22T14:23:23;3.25;;;1.63;;
81801;SDS011;71199;52.490;5.448;2023-07-22T14:25:49;4.22;;;1.70;;
81801;SDS011;71199;52.490;5.448;2023-07-22T14:28:14;4.87;;;1.80;;
81801;SDS011;71199;52.490;5.448;2023-07-22T14:30:40;5.32;;;1.70;;
81801;SDS011;71199;52.490;5.448;2023-07-22T14:33:05;5.70;;;2.10;;
81801;SDS011;71199;52.490;5.448;2023-07-22T14:35:31;6.18;;;2.20;;
81801;SDS011;71199;52.490;5.448;2023-07-22T14:37:59;3.63;;;1.70;;
81801;SDS011;71199;52.490;5.448;2023-07-22T14:40:25;5.78;;;2.17;;
81801;SDS011;71199;52.490;5.448;2023-07-22T14:42:51;3.53;;;2.13;;
81801;SDS011;71199;52.490;5.448;2023-07-22T14:45:16;4.90;;;2.05;;
81801;SDS011;71199;52.490;5.448;2023-07-22T14:47:42;3.42;;;1.98;;
81801;SDS011;71199;52.490;5.448;2023-07-22T14:50:07;7.03;;;1.83;;
81801;SDS011;71199;52.490;5.448;2023-07-22T14:52:33;5.88;;;1.77;;
81801;SDS011;71199;52.490;5.448;2023-07-22T14:54:59;6.57;;;2.40;;